createdAt,value
2019-01-13T00:00:37.248Z,7.50
2019-01-13T00:03:06.481Z,7.50
2019-01-13T00:05:35.159Z,7.50
2019-01-13T00:08:04.100Z,7.50
2019-01-13T00:10:32.641Z,7.50
2019-01-13T00:13:01.095Z,7.50
2019-01-13T00:15:29.670Z,7.50
2019-01-13T00:17:58.204Z,7.50
2019-01-13T00:20:46.116Z,7.50
2019-01-13T00:23:14.566Z,7.50
2019-01-13T00:25:43.035Z,7.50
2019-01-13T00:28:11.525Z,7.50
2019-01-13T00:30:40.076Z,7.50
2019-01-13T00:33:08.544Z,7.50
2019-01-13T00:35:37.128Z,7.50
2019-01-13T00:38:24.920Z,7.50
2019-01-13T00:40:53.485Z,7.50
2019-01-13T00:43:22.005Z,7.50
2019-01-13T00:45:50.507Z,7.50
2019-01-13T00:48:19.039Z,7.50
2019-01-13T00:50:47.488Z,7.50
2019-01-13T00:53:15.948Z,7.50
2019-01-13T00:55:44.432Z,7.50
2019-01-13T00:58:12.884Z,7.50
2019-01-13T01:00:41.484Z,7.50
2019-01-13T01:03:10.121Z,7.50
2019-01-13T01:05:38.652Z,7.40
2019-01-13T01:08:07.703Z,7.50
2019-01-13T01:10:36.172Z,7.50
2019-01-13T01:13:04.784Z,7.40
2019-01-13T01:15:33.416Z,7.50
2019-01-13T01:18:01.975Z,7.40
2019-01-13T01:20:30.469Z,7.50
2019-01-13T01:22:59.141Z,7.40
2019-01-13T01:25:27.719Z,7.50
2019-01-13T01:27:56.172Z,7.50
2019-01-13T01:30:24.630Z,7.50
2019-01-13T01:32:53.175Z,7.40
2019-01-13T01:35:21.748Z,7.50
2019-01-13T01:37:50.276Z,7.50
2019-01-13T01:40:20.625Z,7.50
2019-01-13T01:42:49.212Z,7.50
2019-01-13T01:45:19.518Z,7.50
2019-01-13T01:47:48.836Z,7.50
2019-01-13T01:50:17.723Z,7.50
2019-01-13T01:52:46.795Z,7.50
2019-01-13T01:55:17.642Z,7.50
2019-01-13T01:57:46.197Z,7.50
2019-01-13T02:00:40.487Z,7.50
2019-01-13T02:03:06.340Z,7.50
2019-01-13T02:05:34.820Z,7.50
2019-01-13T02:08:03.298Z,7.50
2019-01-13T02:10:31.814Z,7.50
2019-01-13T02:13:00.873Z,7.50
2019-01-13T02:15:29.489Z,7.50
2019-01-13T02:17:57.967Z,7.60
2019-01-13T02:20:26.552Z,7.50
2019-01-13T02:22:55.036Z,7.60
2019-01-13T02:25:25.842Z,7.60
2019-01-13T02:27:54.356Z,7.60
2019-01-13T02:30:24.781Z,7.60
2019-01-13T02:32:53.368Z,7.60
2019-01-13T02:35:21.932Z,7.60
2019-01-13T02:37:50.409Z,7.60
2019-01-13T02:40:20.723Z,7.60
2019-01-13T02:42:49.429Z,7.60
2019-01-13T02:45:23.999Z,7.60
2019-01-13T02:47:52.536Z,7.60
2019-01-13T02:50:21.056Z,7.60
2019-01-13T02:52:49.682Z,7.60
2019-01-13T02:55:18.216Z,7.70
2019-01-13T02:57:46.678Z,7.70
2019-01-13T03:00:17.597Z,7.70
2019-01-13T03:02:46.122Z,7.70
2019-01-13T03:05:15.965Z,7.70
2019-01-13T03:07:44.550Z,7.70
2019-01-13T03:10:21.360Z,7.70
2019-01-13T03:12:50.636Z,7.70
2019-01-13T03:15:21.027Z,7.70
2019-01-13T03:17:50.720Z,7.70
2019-01-13T03:20:19.388Z,7.70
2019-01-13T03:22:47.990Z,7.70
2019-01-13T03:25:19.529Z,7.80
2019-01-13T03:27:48.148Z,7.70
2019-01-13T03:30:23.609Z,7.70
2019-01-13T03:32:52.242Z,7.80
2019-01-13T03:35:20.686Z,7.80
2019-01-13T03:37:49.220Z,7.80
2019-01-13T03:40:21.582Z,7.80
2019-01-13T03:43:02.658Z,7.80
2019-01-13T03:45:31.261Z,7.80
2019-01-13T03:47:59.795Z,7.80
2019-01-13T03:50:28.283Z,7.80
2019-01-13T03:52:56.849Z,7.80
2019-01-13T03:55:25.454Z,7.80
2019-01-13T03:57:54.051Z,7.80
2019-01-13T04:00:24.557Z,7.90
2019-01-13T04:02:53.172Z,7.80
2019-01-13T04:05:21.932Z,7.80
2019-01-13T04:07:50.503Z,7.90
2019-01-13T04:10:19.089Z,7.80
2019-01-13T04:12:47.684Z,7.90
2019-01-13T04:15:19.661Z,7.80
2019-01-13T04:17:48.256Z,7.90
2019-01-13T04:20:16.928Z,7.90
2019-01-13T04:22:45.408Z,7.90
2019-01-13T04:25:13.889Z,7.90
2019-01-13T04:27:43.099Z,7.90
2019-01-13T04:30:13.807Z,7.90
2019-01-13T04:32:42.266Z,7.90
2019-01-13T04:35:10.843Z,8.00
2019-01-13T04:37:39.452Z,8.00
2019-01-13T04:40:10.512Z,8.00
2019-01-13T04:42:38.966Z,8.00
2019-01-13T04:45:09.498Z,8.00
2019-01-13T04:47:37.942Z,8.00
2019-01-13T04:50:09.482Z,8.00
2019-01-13T04:52:38.112Z,8.00
2019-01-13T04:55:07.653Z,8.00
2019-01-13T04:57:36.593Z,8.10
2019-01-13T05:00:13.236Z,8.10
2019-01-13T05:02:41.764Z,8.00
2019-01-13T05:05:10.339Z,8.10
2019-01-13T05:07:38.834Z,8.10
2019-01-13T05:10:10.379Z,8.10
2019-01-13T05:12:38.860Z,8.10
2019-01-13T05:15:08.179Z,8.10
2019-01-13T05:17:36.686Z,8.10
2019-01-13T05:20:08.254Z,8.10
2019-01-13T05:22:36.746Z,8.20
2019-01-13T05:25:06.837Z,8.20
2019-01-13T05:27:35.285Z,8.20
2019-01-13T05:30:06.300Z,8.20
2019-01-13T05:32:34.748Z,8.20
2019-01-13T05:35:03.307Z,8.20
2019-01-13T05:37:31.860Z,8.20
2019-01-13T05:40:00.320Z,8.20
2019-01-13T05:42:28.805Z,8.20
2019-01-13T05:44:57.365Z,8.20
2019-01-13T05:47:25.880Z,8.30
2019-01-13T05:49:54.339Z,8.30
2019-01-13T05:52:22.907Z,8.30
2019-01-13T05:54:51.369Z,8.30
2019-01-13T05:57:19.856Z,8.30
2019-01-13T05:59:48.336Z,8.30
2019-01-13T06:02:16.787Z,8.30
2019-01-13T06:04:45.259Z,8.30
2019-01-13T06:07:13.877Z,8.40
2019-01-13T06:09:43.245Z,8.40
2019-01-13T06:12:11.759Z,8.40
2019-01-13T06:14:40.225Z,8.40
2019-01-13T06:17:08.680Z,8.40
2019-01-13T06:19:37.167Z,8.50
2019-01-13T06:22:05.643Z,8.50
2019-01-13T06:24:34.137Z,8.50
2019-01-13T06:27:02.665Z,8.50
2019-01-13T06:29:31.199Z,8.50
2019-01-13T06:31:59.745Z,8.50
2019-01-13T06:34:28.387Z,8.50
2019-01-13T06:36:56.889Z,8.60
2019-01-13T06:39:25.509Z,8.50
2019-01-13T06:41:54.004Z,8.60
2019-01-13T06:44:22.457Z,8.60
2019-01-13T06:46:50.912Z,8.60
2019-01-13T06:49:19.885Z,8.60
2019-01-13T06:51:48.347Z,8.60
2019-01-13T06:54:16.804Z,8.60
2019-01-13T06:56:45.379Z,8.60
2019-01-13T06:59:13.950Z,8.60
2019-01-13T07:01:42.402Z,8.60
2019-01-13T07:04:10.869Z,8.60
2019-01-13T07:06:39.364Z,8.60
2019-01-13T07:09:07.961Z,8.60
2019-01-13T07:11:36.411Z,8.60
2019-01-13T07:14:05.649Z,8.60
2019-01-13T07:16:34.109Z,8.60
2019-01-13T07:19:02.565Z,8.60
2019-01-13T07:21:31.049Z,8.60
2019-01-13T07:23:59.515Z,8.50
2019-01-13T07:26:28.096Z,8.60
2019-01-13T07:28:56.728Z,8.60
2019-01-13T07:31:25.179Z,8.60
2019-01-13T07:33:53.871Z,8.50
2019-01-13T07:36:22.423Z,8.50
2019-01-13T07:38:50.873Z,8.50
2019-01-13T07:41:19.442Z,8.50
2019-01-13T07:43:47.943Z,8.50
2019-01-13T07:46:16.405Z,8.50
2019-01-13T07:48:44.999Z,8.60
2019-01-13T07:51:13.558Z,8.60
2019-01-13T07:53:42.030Z,8.60
2019-01-13T07:56:10.559Z,8.60
2019-01-13T07:58:39.117Z,8.60
2019-01-13T08:01:07.572Z,8.60
2019-01-13T08:03:36.050Z,8.60
2019-01-13T08:06:04.588Z,8.70
2019-01-13T08:08:33.059Z,8.70
2019-01-13T08:11:01.546Z,8.70
2019-01-13T08:13:30.135Z,8.70
2019-01-13T08:15:58.658Z,8.80
2019-01-13T08:18:27.177Z,8.80
2019-01-13T08:20:55.799Z,8.80
2019-01-13T08:23:24.331Z,8.80
2019-01-13T08:25:52.852Z,8.80
2019-01-13T08:28:21.325Z,8.70
2019-01-13T08:30:49.784Z,8.80
2019-01-13T08:33:18.237Z,8.80
2019-01-13T08:35:46.787Z,8.80
2019-01-13T08:38:15.316Z,8.80
2019-01-13T08:40:43.807Z,8.80
2019-01-13T08:43:12.288Z,8.80
2019-01-13T08:45:42.102Z,8.80
2019-01-13T08:48:11.064Z,8.80
2019-01-13T08:50:39.562Z,8.80
2019-01-13T08:53:08.012Z,8.80
2019-01-13T08:55:36.474Z,8.80
2019-01-13T08:58:05.118Z,8.80
2019-01-13T09:00:34.024Z,8.90
2019-01-13T09:03:02.489Z,8.90
2019-01-13T09:05:31.105Z,8.90
2019-01-13T09:07:59.659Z,8.90
2019-01-13T09:10:28.282Z,8.90
2019-01-13T09:12:57.153Z,8.90
2019-01-13T09:15:26.400Z,8.90
2019-01-13T09:17:54.928Z,8.90
2019-01-13T09:20:26.914Z,9.00
2019-01-13T09:22:56.916Z,9.00
2019-01-13T09:25:25.523Z,9.00
2019-01-13T09:27:55.672Z,9.00
2019-01-13T09:30:26.664Z,9.00
2019-01-13T09:32:55.135Z,9.00
2019-01-13T09:35:24.079Z,9.10
2019-01-13T09:37:52.989Z,9.10
2019-01-13T09:40:24.472Z,9.00
2019-01-13T09:42:53.301Z,9.00
2019-01-13T09:45:22.114Z,9.00
2019-01-13T09:47:50.569Z,9.00
2019-01-13T09:50:21.464Z,9.00
2019-01-13T09:52:50.011Z,9.00
2019-01-13T09:55:20.415Z,9.00
2019-01-13T09:57:48.968Z,9.00
2019-01-13T10:00:26.271Z,9.00
2019-01-13T10:02:54.813Z,9.10
2019-01-13T10:05:23.268Z,9.10
2019-01-13T10:07:51.824Z,9.10
2019-01-13T10:10:20.581Z,9.10
2019-01-13T10:12:49.182Z,9.00
2019-01-13T10:15:22.621Z,9.00
2019-01-13T10:17:51.180Z,8.90
2019-01-13T10:20:19.671Z,9.00
2019-01-13T10:22:48.572Z,8.90
2019-01-13T10:25:17.749Z,8.90
2019-01-13T10:27:46.224Z,8.90
2019-01-13T10:30:28.955Z,8.90
2019-01-13T10:32:57.477Z,8.90
2019-01-13T10:35:26.155Z,8.90
2019-01-13T10:37:54.717Z,8.80
2019-01-13T10:40:26.234Z,8.80
2019-01-13T10:42:55.157Z,8.80
2019-01-13T10:45:23.931Z,8.80
2019-01-13T10:47:52.506Z,8.80
2019-01-13T10:50:23.779Z,8.80
2019-01-13T10:52:52.886Z,8.80
2019-01-13T10:55:21.363Z,8.80
2019-01-13T10:57:50.144Z,8.80
2019-01-13T11:00:21.468Z,8.80
2019-01-13T11:02:49.925Z,8.80
2019-01-13T11:05:18.388Z,8.80
2019-01-13T11:07:46.891Z,8.80
2019-01-13T11:10:17.090Z,8.80
2019-01-13T11:12:46.253Z,8.80
2019-01-13T11:15:21.409Z,8.90
2019-01-13T11:17:47.336Z,8.90
2019-01-13T11:20:18.487Z,8.90
2019-01-13T11:22:47.450Z,8.80
2019-01-13T11:25:16.569Z,8.80
2019-01-13T11:27:45.069Z,8.80
2019-01-13T11:30:16.621Z,8.80
2019-01-13T11:32:45.073Z,8.80
2019-01-13T11:35:14.511Z,8.90
2019-01-13T11:37:43.094Z,8.90
2019-01-13T11:40:20.515Z,8.90
2019-01-13T11:42:49.171Z,8.90
2019-01-13T11:45:17.707Z,8.90
2019-01-13T11:47:58.840Z,8.90
2019-01-13T11:50:27.501Z,8.90
2019-01-13T11:52:55.978Z,8.90
2019-01-13T11:55:24.564Z,8.90
2019-01-13T11:57:53.237Z,8.90
2019-01-13T12:00:30.827Z,9.00
2019-01-13T12:03:06.366Z,9.00
2019-01-13T12:05:29.615Z,9.00
2019-01-13T12:07:58.098Z,9.00
2019-01-13T12:10:26.771Z,9.00
2019-01-13T12:12:55.483Z,9.00
2019-01-13T12:15:24.025Z,9.00
2019-01-13T12:17:52.486Z,9.00
2019-01-13T12:20:23.399Z,9.00
2019-01-13T12:22:51.915Z,9.00
2019-01-13T12:25:22.309Z,9.00
2019-01-13T12:27:51.408Z,8.90
2019-01-13T12:30:28.596Z,8.90
2019-01-13T12:32:57.912Z,8.90
2019-01-13T12:35:26.452Z,8.90
2019-01-13T12:37:55.012Z,8.90
2019-01-13T12:40:25.836Z,8.90
2019-01-13T12:42:54.537Z,8.90
2019-01-13T12:45:24.137Z,8.90
2019-01-13T12:47:52.960Z,8.90
2019-01-13T12:50:27.079Z,8.90
2019-01-13T12:52:55.614Z,8.90
2019-01-13T12:55:24.167Z,8.90
2019-01-13T12:57:52.721Z,8.90
2019-01-13T13:00:21.608Z,8.90
2019-01-13T13:02:50.145Z,8.90
2019-01-13T13:05:20.240Z,8.90
2019-01-13T13:07:48.904Z,8.90
2019-01-13T13:10:26.693Z,8.90
2019-01-13T13:12:55.234Z,8.90
2019-01-13T13:15:23.720Z,8.90
2019-01-13T13:17:52.181Z,8.90
2019-01-13T13:20:20.663Z,8.90
2019-01-13T13:22:49.344Z,8.90
2019-01-13T13:25:17.864Z,8.90
2019-01-13T13:27:46.481Z,8.90
2019-01-13T13:30:23.486Z,8.90
2019-01-13T13:32:52.198Z,8.90
2019-01-13T13:35:20.794Z,8.90
2019-01-13T13:37:49.484Z,8.90
2019-01-13T13:40:21.831Z,8.90
2019-01-13T13:42:50.789Z,8.90
2019-01-13T13:45:19.424Z,8.90
2019-01-13T13:47:48.057Z,8.90
2019-01-13T13:50:19.168Z,8.90
2019-01-13T13:52:47.687Z,8.90
2019-01-13T13:55:16.324Z,8.90
2019-01-13T13:57:44.777Z,8.90
2019-01-13T14:00:18.804Z,8.90
2019-01-13T14:02:47.284Z,8.90
2019-01-13T14:05:15.838Z,8.90
2019-01-13T14:07:44.423Z,8.90
2019-01-13T14:10:18.884Z,8.90
2019-01-13T14:12:47.465Z,8.90
2019-01-13T14:15:16.008Z,8.90
2019-01-13T14:17:44.498Z,8.90
2019-01-13T14:20:19.695Z,8.90
2019-01-13T14:22:48.216Z,8.90
2019-01-13T14:25:16.788Z,8.90
2019-01-13T14:27:45.307Z,8.90
2019-01-13T14:30:18.987Z,8.90
2019-01-13T14:32:47.598Z,8.80
2019-01-13T14:35:16.126Z,8.80
2019-01-13T14:37:44.644Z,8.80
2019-01-13T14:40:16.260Z,8.80
2019-01-13T14:42:44.721Z,8.80
2019-01-13T14:45:21.967Z,8.80
2019-01-13T14:47:50.479Z,8.80
2019-01-13T14:50:21.192Z,8.90
2019-01-13T14:52:50.468Z,8.90
2019-01-13T14:55:19.301Z,8.90
2019-01-13T14:57:47.823Z,8.90
2019-01-13T15:00:29.349Z,8.90
2019-01-13T15:02:58.193Z,8.90
2019-01-13T15:05:26.740Z,8.90
2019-01-13T15:07:55.220Z,8.90
2019-01-13T15:10:24.817Z,8.90
2019-01-13T15:12:54.249Z,8.90
2019-01-13T15:15:23.141Z,9.00
2019-01-13T15:17:51.727Z,9.00
2019-01-13T15:20:23.897Z,9.00
2019-01-13T15:22:52.518Z,9.00
2019-01-13T15:25:26.856Z,9.00
2019-01-13T15:27:55.319Z,9.00
2019-01-13T15:30:31.868Z,9.00
2019-01-13T15:33:00.401Z,9.00
2019-01-13T15:35:28.981Z,9.00
2019-01-13T15:37:57.647Z,9.00
2019-01-13T15:40:27.804Z,9.00
2019-01-13T15:42:56.324Z,9.00
2019-01-13T15:45:24.952Z,9.00
2019-01-13T15:47:53.526Z,9.00
2019-01-13T15:50:25.063Z,9.00
2019-01-13T15:52:53.639Z,9.10
2019-01-13T15:55:22.458Z,9.10
2019-01-13T15:57:50.925Z,9.10
2019-01-13T16:00:24.447Z,9.10
2019-01-13T16:02:52.979Z,9.10
2019-01-13T16:05:21.504Z,9.10
2019-01-13T16:07:50.000Z,9.10
2019-01-13T16:10:24.204Z,9.20
2019-01-13T16:12:52.731Z,9.10
2019-01-13T16:15:21.209Z,9.20
2019-01-13T16:17:49.667Z,9.20
2019-01-13T16:20:21.025Z,9.20
2019-01-13T16:22:49.576Z,9.20
2019-01-13T16:25:18.028Z,9.20
2019-01-13T16:27:46.484Z,9.20
2019-01-13T16:30:20.376Z,9.20
2019-01-13T16:32:48.846Z,9.30
2019-01-13T16:35:17.404Z,9.30
2019-01-13T16:37:45.884Z,9.30
2019-01-13T16:40:16.516Z,9.30
2019-01-13T16:42:45.047Z,9.30
2019-01-13T16:45:15.463Z,9.30
2019-01-13T16:47:43.999Z,9.40
2019-01-13T16:50:18.446Z,9.40
2019-01-13T16:52:49.494Z,9.50
2019-01-13T16:55:18.477Z,9.50
2019-01-13T16:57:51.145Z,9.50
2019-01-13T17:00:24.553Z,9.50
2019-01-13T17:02:53.153Z,9.60
2019-01-13T17:05:23.047Z,9.50
2019-01-13T17:07:51.600Z,9.50
2019-01-13T17:10:22.294Z,9.50
2019-01-13T17:12:50.985Z,9.50
2019-01-13T17:15:21.876Z,9.50
2019-01-13T17:17:50.327Z,9.50
2019-01-13T17:20:20.768Z,9.40
2019-01-13T17:22:49.699Z,9.40
2019-01-13T17:25:20.498Z,9.50
2019-01-13T17:27:49.040Z,9.50
2019-01-13T17:30:20.648Z,9.50
2019-01-13T17:32:49.247Z,9.50
2019-01-13T17:35:18.733Z,9.50
2019-01-13T17:37:47.220Z,9.50
2019-01-13T17:40:18.479Z,9.50
2019-01-13T17:42:49.244Z,9.50
2019-01-13T17:45:23.528Z,9.50
2019-01-13T17:47:52.433Z,9.50
2019-01-13T17:50:23.183Z,9.40
2019-01-13T17:52:51.864Z,9.40
2019-01-13T17:55:23.027Z,9.30
2019-01-13T17:57:51.560Z,9.30
2019-01-13T18:00:37.619Z,9.40
2019-01-13T18:03:09.213Z,9.40
2019-01-13T18:05:37.689Z,9.40
2019-01-13T18:08:06.458Z,9.40
2019-01-13T18:10:34.972Z,9.40
2019-01-13T18:13:03.683Z,9.40
2019-01-13T18:15:32.242Z,9.40
2019-01-13T18:18:00.706Z,9.40
2019-01-13T18:20:29.200Z,9.40
2019-01-13T18:22:57.686Z,9.30
2019-01-13T18:25:26.219Z,9.30
2019-01-13T18:27:54.677Z,9.20
2019-01-13T18:30:27.628Z,9.00
2019-01-13T18:32:56.109Z,9.00
2019-01-13T18:35:24.648Z,9.00
2019-01-13T18:37:53.187Z,8.90
2019-01-13T18:40:23.626Z,8.90
2019-01-13T18:42:52.580Z,8.90
2019-01-13T18:45:21.471Z,8.90
2019-01-13T18:47:49.991Z,8.90
2019-01-13T18:50:22.925Z,8.90
2019-01-13T18:52:54.596Z,8.80
2019-01-13T18:55:23.164Z,8.80
2019-01-13T18:57:51.616Z,8.70
2019-01-13T19:00:22.991Z,8.70
2019-01-13T19:02:51.721Z,8.60
2019-01-13T19:05:23.104Z,8.30
2019-01-13T19:07:51.656Z,8.00
2019-01-13T19:10:32.356Z,7.70
2019-01-13T19:13:12.754Z,7.60
2019-01-13T19:15:45.849Z,7.50
2019-01-13T19:18:14.482Z,7.50
2019-01-13T19:20:43.160Z,7.50
2019-01-13T19:23:11.829Z,7.40
2019-01-13T19:25:40.275Z,7.40
2019-01-13T19:28:08.894Z,7.40
2019-01-13T19:30:37.489Z,7.40
2019-01-13T19:33:05.984Z,7.50
2019-01-13T19:35:34.612Z,7.50
2019-01-13T19:38:03.322Z,7.60
2019-01-13T19:40:34.208Z,7.70
2019-01-13T19:43:02.898Z,7.80
2019-01-13T19:45:31.441Z,7.80
2019-01-13T19:47:59.965Z,7.80
2019-01-13T19:50:28.548Z,7.80
2019-01-13T19:52:57.111Z,7.80
2019-01-13T19:55:27.342Z,7.80
2019-01-13T19:57:56.006Z,7.80
2019-01-13T20:00:30.138Z,7.80
2019-01-13T20:02:58.666Z,7.80
2019-01-13T20:05:27.174Z,7.80
2019-01-13T20:07:55.703Z,7.80
2019-01-13T20:10:24.304Z,7.80
2019-01-13T20:12:52.862Z,7.80
2019-01-13T20:15:22.364Z,7.80
2019-01-13T20:17:50.835Z,7.80
2019-01-13T20:20:20.686Z,7.80
2019-01-13T20:22:49.380Z,7.80
2019-01-13T20:25:19.238Z,7.80
2019-01-13T20:27:49.061Z,7.80
2019-01-13T20:30:23.323Z,7.90
2019-01-13T20:32:51.779Z,7.90
2019-01-13T20:35:20.363Z,7.90
2019-01-13T20:37:48.850Z,7.90
2019-01-13T20:40:17.980Z,8.00
2019-01-13T20:42:46.660Z,8.00
2019-01-13T20:45:27.052Z,8.00
2019-01-13T20:47:55.532Z,8.10
2019-01-13T20:50:26.985Z,8.10
2019-01-13T20:52:55.455Z,8.10
2019-01-13T20:55:23.990Z,8.10
2019-01-13T20:57:54.803Z,8.20
2019-01-13T21:00:26.053Z,8.20
2019-01-13T21:02:54.558Z,8.20
2019-01-13T21:05:26.857Z,8.20
2019-01-13T21:07:54.300Z,8.30
2019-01-13T21:10:23.116Z,8.30
2019-01-13T21:12:52.557Z,8.30
2019-01-13T21:15:26.729Z,8.20
2019-01-13T21:17:57.734Z,8.20
2019-01-13T21:20:27.074Z,8.20
2019-01-13T21:22:58.628Z,8.20
2019-01-13T21:25:27.708Z,8.20
2019-01-13T21:27:57.812Z,8.20
2019-01-13T21:30:29.308Z,8.20
2019-01-13T21:32:57.864Z,8.20
2019-01-13T21:35:33.498Z,8.20
2019-01-13T21:37:56.668Z,8.20
2019-01-13T21:40:25.203Z,8.20
2019-01-13T21:42:53.786Z,8.20
2019-01-13T21:45:23.840Z,8.20
2019-01-13T21:47:52.360Z,8.20
2019-01-13T21:50:23.325Z,8.20
2019-01-13T21:52:51.952Z,8.10
2019-01-13T21:55:20.493Z,8.00
2019-01-13T21:57:49.546Z,8.10
2019-01-13T22:00:24.121Z,8.00
2019-01-13T22:02:52.743Z,8.00
2019-01-13T22:05:21.282Z,8.00
2019-01-13T22:07:50.188Z,8.00
2019-01-13T22:10:23.625Z,8.00
2019-01-13T22:12:52.668Z,8.00
2019-01-13T22:15:22.089Z,8.00
2019-01-13T22:17:50.948Z,8.00
2019-01-13T22:20:21.871Z,7.90
2019-01-13T22:22:51.362Z,7.90
2019-01-13T22:25:20.511Z,7.90
2019-01-13T22:27:49.109Z,7.80
2019-01-13T22:30:20.101Z,7.70
2019-01-13T22:32:48.771Z,7.70
2019-01-13T22:35:17.353Z,7.60
2019-01-13T22:37:45.993Z,7.60
2019-01-13T22:40:16.509Z,7.60
2019-01-13T22:42:46.084Z,7.60
2019-01-13T22:45:17.323Z,7.50
2019-01-13T22:47:45.956Z,7.50
2019-01-13T22:50:17.061Z,7.50
2019-01-13T22:52:45.779Z,7.50
2019-01-13T22:55:14.400Z,7.50
2019-01-13T22:57:42.999Z,7.60
2019-01-13T23:00:34.144Z,7.60
2019-01-13T23:03:02.777Z,7.60
2019-01-13T23:05:31.300Z,7.50
2019-01-13T23:07:59.776Z,7.50
2019-01-13T23:10:28.393Z,7.50
2019-01-13T23:12:56.867Z,7.50
2019-01-13T23:15:25.421Z,7.50
2019-01-13T23:17:53.983Z,7.50
2019-01-13T23:20:22.440Z,7.50
2019-01-13T23:22:50.919Z,7.50
2019-01-13T23:25:19.368Z,7.50
2019-01-13T23:27:47.824Z,7.50
2019-01-13T23:30:16.394Z,7.50
2019-01-13T23:32:44.852Z,7.50
2019-01-13T23:35:13.312Z,7.50
2019-01-13T23:37:41.852Z,7.50
2019-01-13T23:40:10.369Z,7.50
2019-01-13T23:42:38.823Z,7.50
2019-01-13T23:45:08.560Z,7.50
2019-01-13T23:47:37.008Z,7.50
2019-01-13T23:50:07.685Z,7.50
2019-01-13T23:52:36.657Z,7.50
2019-01-13T23:55:06.529Z,7.50
2019-01-13T23:57:34.981Z,7.50
